ADDS METAR Data INFO
IDs: Format: Raw Decoded Include TAF

Data at: 2047 UTC 19 Jul 2018

KROS 192036Z AUTO 12003KT 10SM -RA SCT034 SCT040 OVC047 20/17 A2978 RMK AO2 P0001 T01980171
KROS 192035Z AUTO 12004KT 10SM -RA SCT034 SCT040 OVC047 20/17 A2978 RMK AO2 P0001 T01980171
KROS 192015Z AUTO 13006G09KT 2 1/2SM -RA SCT019 SCT032 OVC049 20/17 A2979 RMK AO2 P0001 T02040166
KROS 191956Z AUTO 14006G15KT 10SM SCT034 BKN049 OVC090 22/16 A2979 RMK AO2 T02230164
KROS 191955Z AUTO 13007G15KT 090V150 10SM SCT034 BKN049 OVC090 22/16 A2979 RMK AO2 T02230164
KROS 191936Z AUTO 13007KT 10SM SCT031 SCT044 BKN070 23/17 A2979 RMK AO2 T02300167
KROS 191935Z AUTO 12007KT 10SM SCT031 SCT044 BKN070 23/17 A2979 RMK AO2 T02290167
KROS 191915Z AUTO 12005KT 10SM BKN037 BKN060 OVC120 23/17 A2980 RMK AO2 LTG DSNT N AND SE T02250166
KROS 191856Z AUTO 12008G15KT 090V150 10SM SCT037 SCT055 BKN080 23/17 A2980 RMK AO2 LTG DSNT SW T02280165
KROS 191855Z AUTO 13009G15KT 090V150 10SM SCT037 BKN080 OVC100 23/17 A2980 RMK AO2 LTG DSNT SW T02280166
KROS 191836Z AUTO 12005KT 10SM SCT027 BKN042 OVC080 23/17 A2980 RMK AO2 LTG DSNT S T02270173
KROS 191835Z AUTO 12005KT 10SM SCT027 BKN042 OVC080 23/17 A2980 RMK AO2 LTG DSNT S T02260172
KROS 191815Z AUTO 16009KT 10SM BKN025 OVC032 22/17 A2981 RMK AO2 T02210165
KROS 191756Z AUTO 17007KT 10SM SCT025 BKN032 OVC041 23/18 A2982 RMK AO2 T02270176 10250 20166
KROS 191755Z AUTO 16006KT 10SM SCT028 BKN035 OVC041 23/18 A2982 RMK AO2 T02280176 10250 20166
KROS 191736Z AUTO 14005KT 10SM SCT030 BKN038 OVC085 23/17 A2982 RMK AO2 T02270173
KROS 191735Z AUTO 15006KT 10SM SCT030 BKN038 OVC085 23/17 A2982 RMK AO2 T02270172
KROS 191715Z AUTO 16007G14KT 10SM SCT034 SCT050 OVC085 24/17 A2982 RMK AO2 T02350174
KROS 191656Z AUTO 17010G16KT 10SM SCT030 SCT041 OVC095 24/17 A2982 RMK AO2 T02370174
KROS 191655Z AUTO 17011G16KT 10SM SCT030 SCT041 OVC095 24/18 A2982 RMK AO2 T02370175
KROS 191636Z AUTO 15007KT 10SM SCT037 BKN095 24/18 A2982 RMK AO2 T02380177
KROS 191635Z AUTO 15006KT 10SM SCT037 BKN095 24/18 A2982 RMK AO2 T02380177
KROS 191615Z AUTO 15009G14KT 10SM CLR 25/18 A2982 RMK AO2 T02450177
KROS 191556Z AUTO 14008G15KT 10SM SCT029 SCT037 25/18 A2982 RMK AO2 T02500182
KROS 191555Z AUTO 15007G15KT 10SM SCT029 SCT037 25/18 A2982 RMK AO2 T02490182
KROS 191536Z AUTO 16010KT 10SM CLR 25/18 A2983 RMK AO2 T02460182
KROS 191515Z AUTO 14010G14KT 10SM CLR 24/19 A2983 RMK AO2 T02420185
KROS 191456Z AUTO 16005G14KT 10SM CLR 24/18 A2984 RMK AO2 T02360184
KROS 191455Z AUTO 15006G14KT 10SM CLR 24/18 A2984 RMK AO2 T02360183
KROS 191435Z AUTO 14009G15KT 10SM CLR 23/18 A2985 RMK AO2 T02280181
KROS 191416Z AUTO 14007KT 10SM CLR 22/18 A2985 RMK AO2 T02240183
KROS 191415Z AUTO 14005KT 10SM CLR 22/18 A2985 RMK AO2 T02240183
KROS 191356Z AUTO 13006KT 10SM CLR 21/18 A2986 RMK AO2 LTG DSNT S T02110180
KROS 191355Z AUTO 13005KT 10SM CLR 21/18 A2986 RMK AO2 LTG DSNT S T02100179
KROS 191335Z AUTO 13004KT 10SM CLR 21/18 A2986 RMK AO2 T02060175
KROS 191316Z AUTO 12004KT 10SM CLR 20/17 A2986 RMK AO2 LTG DSNT S AND SW T01980170
KROS 191315Z AUTO 13004KT 10SM CLR 20/17 A2986 RMK AO2 LTG DSNT S AND SW T01970169
KROS 191255Z AUTO 11003KT 10SM CLR 19/16 A2987 RMK AO2 LTG DSNT S T01860162
KROS 191236Z AUTO 00000KT 10SM CLR 18/16 A2987 RMK AO2 T01770156
KROS 191235Z AUTO 00000KT 10SM CLR 18/16 A2987 RMK AO2 T01770155
KROS 191216Z AUTO 13004KT 10SM SCT050 17/15 A2988 RMK AO2 LTG DSNT SW T01710150
KROS 191215Z AUTO 13005KT 10SM SCT050 17/15 A2988 RMK AO2 LTG DSNT SW T01710150
KROS 191155Z AUTO 00000KT 10SM BKN048 BKN055 17/15 A2988 RMK AO2 LTG DSNT S AND SW T01660146 10166 20151
KROS 191136Z AUTO 00000KT 10SM SCT046 SCT050 16/14 A2989 RMK AO2 T01610142
KROS 191135Z AUTO 00000KT 10SM SCT046 SCT050 16/14 A2989 RMK AO2 T01610142
KROS 191116Z AUTO 00000KT 10SM CLR 16/14 A2989 RMK AO2 T01600140
KROS 191056Z AUTO 00000KT 10SM CLR 16/14 A2990 RMK AO2 LTG DSNT S T01570138
KROS 191055Z AUTO 00000KT 10SM CLR 16/14 A2990 RMK AO2 LTG DSNT S T01570138
KROS 191036Z AUTO 00000KT 10SM SCT046 16/14 A2990 RMK AO2 LTG DSNT S T01600138
KROS 191035Z AUTO 00000KT 10SM SCT046 16/14 A2990 RMK AO2 LTG DSNT S T01600139
KROS 191015Z AUTO 00000KT 10SM BKN044 BKN050 16/14 A2991 RMK AO2 T01560138
KROS 190956Z AUTO 00000KT 10SM SCT046 SCT050 SCT100 16/14 A2991 RMK AO2 T01600140
KROS 190955Z AUTO 00000KT 10SM SCT046 SCT050 BKN100 16/14 A2991 RMK AO2 T01600140
KROS 190935Z AUTO 00000KT 10SM SCT046 SCT100 16/14 A2992 RMK AO2 T01570140
KROS 190916Z AUTO 00000KT 10SM SCT050 SCT055 SCT100 16/14 A2992 RMK AO2 T01580142
KROS 190915Z AUTO 00000KT 10SM SCT050 SCT055 SCT100 16/14 A2992 RMK AO2 T01580142
KROS 190856Z AUTO 00000KT 10SM SCT050 SCT055 BKN110 16/14 A2993 RMK AO2 T01560141
KROS 190855Z AUTO 00000KT 10SM SCT050 SCT055 BKN110 16/14 A2993 RMK AO2 T01550141
KROS 190836Z AUTO 00000KT 10SM SCT110 16/14 A2994 RMK AO2 T01550139
KROS 190835Z AUTO 00000KT 10SM SCT110 16/14 A2994 RMK AO2 T01550140
KROS 190815Z AUTO 00000KT 10SM BKN110 16/15 A2993 RMK AO2 T01600145
KROS 190756Z AUTO 00000KT 10SM BKN110 16/14 A2994 RMK AO2 T01590144
KROS 190755Z AUTO 00000KT 10SM BKN120 16/14 A2994 RMK AO2 T01590144
KROS 190736Z AUTO 00000KT 10SM BKN120 16/14 A2994 RMK AO2 T01560144
KROS 190735Z AUTO 00000KT 10SM BKN120 16/14 A2994 RMK AO2 T01560144
KROS 190715Z AUTO 00000KT 10SM BKN120 16/14 A2994 RMK AO2 LTG DSNT S T01550143
KROS 190655Z AUTO 00000KT 10SM BKN120 16/14 A2994 RMK AO2 T01550142
KROS 190636Z AUTO 00000KT 10SM BKN120 15/14 A2995 RMK AO2 T01520141
KROS 190635Z AUTO 13003KT 10SM BKN110 15/14 A2995 RMK AO2 T01520141
KROS 190615Z AUTO 00000KT 10SM BKN120 16/15 A2996 RMK AO2 T01560145
KROS 190555Z AUTO 00000KT 10SM BKN120 16/15 A2997 RMK AO2 T01580145 10233 20158 402650107
KROS 190536Z AUTO 00000KT 10SM SCT120 16/15 A2996 RMK AO2 T01640149
KROS 190535Z AUTO 00000KT 10SM SCT120 16/15 A2996 RMK AO2 T01640149
KROS 190515Z AUTO 00000KT 7SM SCT120 16/15 A2996 RMK AO2 T01630150
KROS 190456Z AUTO 00000KT 7SM BKN120 17/15 A2998 RMK AO2 T01690153
KROS 190455Z AUTO 00000KT 7SM BKN120 17/15 A2998 RMK AO2 T01700154
KROS 190436Z AUTO 00000KT 7SM BKN120 17/16 A2998 RMK AO2 T01710156
KROS 190435Z AUTO 00000KT 7SM BKN120 17/16 A2998 RMK AO2 T01700155
KROS 190415Z AUTO 13003KT 7SM BKN110 17/16 A2998 RMK AO2 T01690155
KROS 190356Z AUTO 00000KT 7SM SCT120 17/15 A2998 RMK AO2 T01650152
KROS 190355Z AUTO 00000KT 7SM SCT120 17/15 A2998 RMK AO2 T01650153
KROS 190336Z AUTO 00000KT 7SM SCT120 17/16 A2999 RMK AO2 T01700156
KROS 190335Z AUTO 00000KT 7SM SCT120 17/16 A2999 RMK AO2 T01690156
KROS 190315Z AUTO 00000KT 7SM SCT120 17/16 A2999 RMK AO2 T01730158
KROS 190256Z AUTO 00000KT 7SM SCT110 18/16 A2999 RMK AO2 T01760161
KROS 190255Z AUTO 00000KT 7SM SCT110 18/16 A2999 RMK AO2 T01760160
KROS 190236Z AUTO 00000KT 7SM CLR 18/16 A2999 RMK AO2 T01780161
KROS 190235Z AUTO 00000KT 7SM CLR 18/16 A2999 RMK AO2 T01790161
KROS 190215Z AUTO 00000KT 7SM CLR 19/17 A2999 RMK AO2 T01850166
KROS 190156Z AUTO 00000KT 7SM CLR 20/17 A2998 RMK AO2 T01950167
KROS 190155Z AUTO 00000KT 7SM CLR 20/17 A2998 RMK AO2 T01960168
KROS 190136Z AUTO 00000KT 5SM HZ CLR 21/17 A2998 RMK AO2 T02050167
KROS 190135Z AUTO 00000KT 5SM HZ CLR 21/17 A2998 RMK AO2 T02050167
KROS 190115Z AUTO 00000KT 7SM CLR 22/17 A2999 RMK AO2 T02180168
KROS 190056Z AUTO 00000KT 7SM CLR 23/17 A2999 RMK AO2 T02280166
KROS 190055Z AUTO 00000KT 5SM HZ CLR 23/16 A2999 RMK AO2 T02290164
KROS 190036Z AUTO 16003KT 5SM HZ CLR 23/17 A3000 RMK AO2 T02330165
KROS 190035Z AUTO 16003KT 5SM HZ CLR 23/17 A3000 RMK AO2 T02330166
KROS 190015Z AUTO 00000KT 5SM HZ CLR 23/17 A3000 RMK AO2 T02320166
KROS 182356Z AUTO 00000KT 5SM HZ CLR 23/17 A3001 RMK AO2 T02310166 10265 20231
KROS 182355Z AUTO 00000KT 5SM HZ CLR 23/17 A3001 RMK AO2 T02310165 10265 20231
KROS 182336Z AUTO 00000KT 5SM HZ CLR 24/16 A3001 RMK AO2 T02350164
KROS 182335Z AUTO 00000KT 5SM HZ CLR 24/16 A3001 RMK AO2 T02360163
KROS 182315Z AUTO 15003KT 10SM CLR 24/16 A3001 RMK AO2 T02400156
KROS 182256Z AUTO 15004KT 5SM HZ CLR 24/15 A3001 RMK AO2 T02400152
KROS 182255Z AUTO 15004KT 5SM HZ CLR 24/15 A3001 RMK AO2 T02400153
KROS 182236Z AUTO 16003KT 7SM CLR 25/16 A3002 RMK AO2 T02480157
KROS 182235Z AUTO 16003KT 5SM HZ CLR 25/16 A3002 RMK AO2 T02490157
KROS 182215Z AUTO 14006KT 7SM SCT050 26/15 A3003 RMK AO2 T02570153
KROS 182156Z AUTO 00000KT 7SM CLR 26/16 A3003 RMK AO2 T02600156
KROS 182155Z AUTO 11003KT 7SM CLR 26/16 A3003 RMK AO2 T02590156
KROS 182136Z AUTO 00000KT 7SM CLR 26/16 A3003 RMK AO2 T02600157
KROS 182135Z AUTO 00000KT 7SM CLR 26/16 A3003 RMK AO2 T02600160
KROS 182115Z AUTO 00000KT 5SM HZ SCT050 26/15 A3004 RMK AO2 T02550152
KROS 182056Z AUTO 00000KT 7SM SCT050 26/15 A3005 RMK AO2 T02570152
KROS 182055Z AUTO 00000KT 7SM SCT050 26/16 A3005 RMK AO2 T02570156
KROS 182036Z AUTO 15003KT 7SM SCT050 26/16 A3006 RMK AO2 T02630159
KROS 182035Z AUTO 00000KT 7SM SCT050 26/16 A3006 RMK AO2 T02620159
KROS 182015Z AUTO 00000KT 7SM CLR 26/14 A3006 RMK AO2 T02560141
KROS 181956Z AUTO 00000KT 7SM CLR 25/14 A3006 RMK AO2 T02510135
KROS 181955Z AUTO 00000KT 7SM CLR 25/14 A3006 RMK AO2 T02510135
KROS 181936Z AUTO 00000KT 7SM CLR 26/15 A3007 RMK AO2 T02550148
KROS 181935Z AUTO 00000KT 7SM CLR 26/15 A3007 RMK AO2 T02550147
KROS 181915Z AUTO 00000KT 7SM CLR 25/13 A3007 RMK AO2 T02540133
KROS 181856Z AUTO 19003KT 7SM CLR 25/13 A3008 RMK AO2 T02530133
KROS 181855Z AUTO 18003KT 7SM CLR 25/13 A3007 RMK AO2 T02530132
KROS 181836Z AUTO 00000KT 7SM CLR 25/13 A3008 RMK AO2 T02500131
KROS 181835Z AUTO 00000KT 7SM CLR 25/14 A3008 RMK AO2 T02510135
KROS 181815Z AUTO 00000KT 10SM CLR 25/13 A3008 RMK AO2 T02480132
KROS 181756Z AUTO 16003KT 5SM HZ CLR 25/13 A3009 RMK AO2 T02500132 10250 20134
KROS 181755Z AUTO 00000KT 7SM CLR 25/13 A3009 RMK AO2 T02500131 10250 20134
KROS 181736Z AUTO 17006KT 10SM CLR 25/13 A3009 RMK AO2 T02470129
KROS 181735Z AUTO 18005KT 10SM CLR 25/13 A3009 RMK AO2 T02470128
KROS 181715Z AUTO 00000KT 7SM CLR 24/13 A3010 RMK AO2 T02430126
KROS 181656Z AUTO 00000KT 10SM CLR 25/14 A3010 RMK AO2 T02450136
KROS 181655Z AUTO 00000KT 10SM CLR 25/14 A3010 RMK AO2 T02450137
KROS 181637Z AUTO 16003KT 10SM CLR 24/14 A3011 RMK AO2 T02420140
KROS 181616Z AUTO 20003KT 10SM CLR 24/15 A3011 RMK AO2 T02360148
KROS 181615Z AUTO 20003KT 10SM CLR 24/15 A3011 RMK AO2 T02360148
KROS 181555Z AUTO 16003KT 10SM CLR 23/15 A3011 RMK AO2 T02310149
KROS 181536Z AUTO 18004KT 10SM CLR 23/14 A3012 RMK AO2 T02300143
KROS 181535Z AUTO 18005KT 10SM CLR 23/14 A3012 RMK AO2 T02300143
KROS 181516Z AUTO 00000KT 10SM CLR 23/15 A3012 RMK AO2 T02250150
KROS 181515Z AUTO 00000KT 10SM CLR 23/15 A3012 RMK AO2 T02250150
KROS 181455Z AUTO 17003KT 10SM CLR 22/15 A3012 RMK AO2 T02190153
KROS 181436Z AUTO 15003KT 10SM CLR 21/15 A3013 RMK AO2 T02100151
KROS 181435Z AUTO 15003KT 10SM CLR 21/15 A3013 RMK AO2 T02100152
KROS 181416Z AUTO 00000KT 10SM CLR 20/15 A3013 RMK AO2 T02010149
KROS 181415Z AUTO 00000KT 10SM CLR 20/15 A3013 RMK AO2 T02010149
KROS 181355Z AUTO 00000KT 10SM SCT110 19/15 A3013 RMK AO2 T01920146
KROS 181336Z AUTO 00000KT 10SM SCT110 19/14 A3014 RMK AO2 T01850144
KROS 181335Z AUTO 00000KT 10SM SCT110 18/14 A3014 RMK AO2 T01840143
KROS 181316Z AUTO 00000KT 10SM CLR 17/14 A3014 RMK AO2 T01740140
KROS 181315Z AUTO 00000KT 10SM CLR 17/14 A3014 RMK AO2 T01730140
KROS 181255Z AUTO 00000KT 10SM SCT100 16/14 A3014 RMK AO2 T01600139
KROS 181236Z AUTO 16003KT 10SM CLR 15/14 A3014 RMK AO2 T01490139
KROS 181235Z AUTO 00000KT 10SM CLR 15/14 A3014 RMK AO2 T01480138
KROS 181216Z AUTO 00000KT 10SM CLR 14/13 A3014 RMK AO2 T01390132
KROS 181215Z AUTO 00000KT 10SM CLR 14/13 A3014 RMK AO2 T01390131
KROS 181155Z AUTO 00000KT 10SM CLR 13/13 A3014 RMK AO2 T01330127 10135 20107
KROS 181136Z AUTO 00000KT 10SM CLR 13/12 A3014 RMK AO2 T01260120
KROS 181135Z AUTO 00000KT 10SM CLR 13/12 A3014 RMK AO2 T01260120
KROS 181116Z AUTO 00000KT 10SM SCT110 12/11 A3014 RMK AO2 T01170111
KROS 181115Z AUTO 00000KT 10SM SCT110 12/11 A3014 RMK AO2 T01170111
KROS 181055Z AUTO 00000KT 10SM SCT110 11/11 A3014 RMK AO2 T01120106
KROS 181036Z AUTO 00000KT 10SM BKN120 11/11 A3014 RMK AO2 T01140107
KROS 181035Z AUTO 00000KT 10SM BKN120 11/11 A3014 RMK AO2 T01130107
KROS 181016Z AUTO 00000KT 1 3/4SM BR BKN110 11/11 A3014 RMK AO2 T01110105
KROS 181015Z AUTO 00000KT 2 1/2SM BR BKN110 11/11 A3014 RMK AO2 VIS 3/4V5 T01110105
KROS 180955Z AUTO 00000KT 7SM BKN110 12/11 A3013 RMK AO2 T01170111
KROS 180936Z AUTO 00000KT 7SM OVC120 12/11 A3013 RMK AO2 T01190112
KROS 180935Z AUTO 00000KT 7SM OVC120 12/11 A3013 RMK AO2 T01200112
KROS 180916Z AUTO 00000KT 10SM BKN120 13/12 A3013 RMK AO2 T01250118
KROS 180915Z AUTO 00000KT 10SM BKN120 13/12 A3013 RMK AO2 T01270119
KROS 180855Z AUTO 00000KT 10SM BKN120 12/11 A3012 RMK AO2 T01190111